• Join FlightAware (Why Join?)
  • Login
  • US Flag 
08:49AM EST


 

Airport Tracker/Info


-or-


 

Live Flight TrackerFlight Track Log ✈ ASA123 ✈ 10-Jan-2014 ✈ KSEA - PAFA / FAI

Flight Track Log - Related Links

Times and Time Zones

All times are in EST time to prevent confusion due to time zone crossing. See the ASA123 flight status page for this flight to view local times or setup timezone preferences in your user account.

Time Position Orientation Groundspeed Altitude Reporting Facility
EST Latitude Longitude Course Direction KTS MPH feet Rate Location/Type
04:51PM 47.4372 -122.3092 174° South 154 177 1,300  Level Seattle Center
04:51PM 47.4317 -122.3083 174° South 144 166 1,900 2,220 Climbing Seattle Center
04:51PM 47.4214 -122.3083 180° South 151 174 2,200 1,740 Climbing Seattle Center
04:52PM 47.3822 -122.3094 181° South 178 205 3,700 1,920 Climbing Seattle Center
04:53PM 47.3231 -122.3319 194° South 233 268 5,700 2,400 Climbing Seattle Center
04:54PM 47.3097 -122.4331 259° West 254 292 8,600 2,820 Climbing Seattle Center
04:55PM 47.3428 -122.5244 298° West 251 289 11,500 1,860 Climbing Seattle Center
04:56PM 47.4089 -122.6103 319° Northwest 323 372 12,500 1,740 Climbing Seattle Center
04:57PM 47.4836 -122.7028 320° Northwest 351 404 15,100 2,640 Climbing Seattle Center
04:58PM 47.5761 -122.7861 329° Northwest 366 421 17,900 2,400 Climbing Seattle Center
04:59PM 47.6631 -122.8653 328° Northwest 371 427 20,000 1,980 Climbing Seattle Center
05:00PM 47.7567 -122.9475 329° Northwest 385 443 22,000 1,860 Climbing Seattle Center
05:01PM 47.8517 -123.0303 330° Northwest 394 453 23,900 1,680 Climbing Seattle Center
05:02PM 47.9492 -123.1169 329° Northwest 404 465 25,500 1,500 Climbing Seattle Center
05:03PM 48.0478 -123.2050 329° Northwest 410 472 27,000 1,440 Climbing Seattle Center
05:04PM 48.1394 -123.2850 330° Northwest 420 483 28,500 1,620 Climbing Seattle Center
05:05PM 48.2369 -123.3744 329° Northwest 415 478 30,400 2,040 Climbing Seattle Center
05:06PM 48.3519 -123.4786 329° Northwest 404 465 32,700 1,980 Climbing Seattle Center
05:07PM 48.4500 -123.5667 329° Northwest 390 449 34,900 1,440 Climbing Vancouver Center
05:08PM 48.5333 -123.6667 322° Northwest 380 437 36,000 540 Climbing Vancouver Center
05:09PM 48.6167 -123.7500 327° Northwest 380 437 36,000  Level Vancouver Center
05:10PM 48.7167 -123.8167 336° Northwest 380 437 36,000  Level Vancouver Center
05:11PM 48.8000 -123.9000 327° Northwest 380 437 36,000  Level Vancouver Center
05:12PM 48.9000 -124.0000 327° Northwest 380 437 36,000  Level Vancouver Center
05:13PM 48.9833 -124.0833 327° Northwest 380 437 36,000  Level Vancouver Center
05:14PM 49.0667 -124.1500 332° Northwest 380 437 36,000  Level Vancouver Center
05:15PM 49.1667 -124.2667 323° Northwest 380 437 36,000  Level Vancouver Center
05:16PM 49.2500 -124.3333 332° Northwest 380 437 36,000  Level Vancouver Center
05:17PM 49.3333 -124.4167 327° Northwest 380 437 36,000  Level Vancouver Center
05:18PM 49.4333 -124.5000 332° Northwest 380 437 36,000  Level Vancouver Center
05:19PM 49.5167 -124.6000 322° Northwest 380 437 36,000  Level Vancouver Center
05:20PM 49.6167 -124.6833 332° Northwest 380 437 36,000  Level Vancouver Center
05:21PM 49.7000 -124.7500 333° Northwest 380 437 36,000  Level Vancouver Center
05:22PM 49.7833 -124.8333 327° Northwest 380 437 36,000  Level Vancouver Center
05:23PM 49.8833 -124.9333 327° Northwest 380 437 36,000  Level Vancouver Center
05:24PM 49.9667 -125.0167 327° Northwest 380 437 36,000  Level Vancouver Center
05:25PM 50.0667 -125.1000 332° Northwest 380 437 36,000  Level Vancouver Center
05:26PM 50.1667 -125.2000 327° Northwest 390 449 36,000  Level Vancouver Center
05:27PM 50.2500 -125.2833 327° Northwest 380 437 36,000  Level Vancouver Center
05:28PM 50.3333 -125.3667 327° Northwest 380 437 36,000  Level Vancouver Center
05:29PM 50.4333 -125.4833 323° Northwest 380 437 36,000  Level Vancouver Center
05:30PM 50.5167 -125.5500 333° Northwest 380 437 36,000  Level Vancouver Center
05:31PM 50.6167 -125.6333 332° Northwest 380 437 36,000  Level Vancouver Center
05:32PM 50.6833 -125.7500 312° West 380 437 36,000  Level Vancouver Center
05:33PM 50.7833 -125.8333 332° Northwest 380 437 36,000  Level Vancouver Center
05:34PM 50.8667 -125.9167 328° Northwest 390 449 36,000  Level Vancouver Center
05:35PM 50.9667 -126.0333 324° Northwest 380 437 36,000  Level Vancouver Center
05:36PM 51.0500 -126.1167 328° Northwest 380 437 36,000  Level Vancouver Center
05:37PM 51.1500 -126.2167 328° Northwest 390 449 36,000  Level Vancouver Center
05:38PM 51.2333 -126.3000 328° Northwest 390 449 36,000  Level Vancouver Center
05:39PM 51.3167 -126.3833 328° Northwest 390 449 36,000  Level Vancouver Center
05:40PM 51.4167 -126.4833 328° Northwest 380 437 36,000  Level Vancouver Center
05:41PM 51.5000 -126.5833 323° Northwest 380 437 36,000  Level Vancouver Center
05:42PM 51.5833 -126.6667 328° Northwest 390 449 36,000  Level Vancouver Center
05:43PM 51.6667 -126.7667 323° Northwest 390 449 36,000  Level Vancouver Center
05:44PM 51.7667 -126.8667 328° Northwest 390 449 36,000  Level Vancouver Center
05:45PM 51.8500 -126.9667 323° Northwest 390 449 36,000  Level Vancouver Center
05:46PM 51.9500 -127.0833 324° Northwest 400 460 36,000  Level Vancouver Center
05:47PM 52.0500 -127.1667 333° Northwest 400 460 36,000  Level Vancouver Center
05:48PM 52.1500 -127.2833 324° Northwest 390 449 36,000  Level Vancouver Center
05:49PM 52.2167 -127.3667 323° Northwest 390 449 36,000  Level Vancouver Center
05:50PM 52.3000 -127.4500 329° Northwest 390 449 36,000  Level Vancouver Center
05:51PM 52.4000 -127.5667 325° Northwest 390 449 36,000  Level Vancouver Center
05:52PM 52.4833 -127.6667 324° Northwest 390 449 36,000  Level Vancouver Center
05:55PM 52.7500 -127.9667 326° Northwest 380 437 36,000  Level Vancouver Center
05:56PM 52.8500 -128.0833 325° Northwest 390 449 36,000  Level Vancouver Center
05:57PM 52.9333 -128.1667 329° Northwest 390 449 36,000  Level Vancouver Center
05:58PM 53.0333 -128.2667 329° Northwest 410 472 36,000  Level Vancouver Center
06:00PM 53.2167 -128.4500 329° Northwest 410 472 36,000  Level Anchorage Center
06:01PM 53.3000 -128.5667 320° Northwest 400 460 36,000  Level Anchorage Center
06:02PM 53.3833 -128.6667 324° Northwest 400 460 36,000  Level Anchorage Center
06:03PM 53.4833 -128.7833 325° Northwest 400 460 36,000  Level Anchorage Center
06:03PM 53.4833 -128.7833 325° Northwest 390 449 36,000  Level Vancouver Center
06:04PM 53.5667 -128.9167 316° Northwest 390 449 36,000  Level Vancouver Center
06:05PM 53.6667 -129.0167 329° Northwest 400 460 36,000  Level Vancouver Center
06:06PM 53.7500 -129.1333 320° Northwest 390 449 36,000  Level Vancouver Center
06:07PM 53.8500 -129.2333 329° Northwest 390 449 36,000  Level Vancouver Center
06:08PM 53.9333 -129.3500 321° Northwest 400 460 36,000  Level Vancouver Center
06:09PM 54.0167 -129.4500 325° Northwest 400 460 36,000  Level Vancouver Center
06:10PM 54.1167 -129.5833 322° Northwest 400 460 36,000  Level Vancouver Center
06:11PM 54.2000 -129.6833 325° Northwest 400 460 36,000  Level Vancouver Center
06:12PM 54.2833 -129.8000 321° Northwest 410 472 36,000  Level Vancouver Center
06:13PM 54.3833 -129.9000 330° Northwest 410 472 36,000  Level Vancouver Center
06:14PM 54.4667 -130.0333 317° Northwest 410 472 36,000  Level Vancouver Center
06:15PM 54.5667 -130.1333 330° Northwest 410 472 36,000  Level Vancouver Center
06:16PM 54.6667 -130.2667 322° Northwest 410 472 36,000  Level Vancouver Center
06:17PM 54.7500 -130.4000 317° Northwest 410 472 36,000  Level Vancouver Center
06:18PM 54.8333 -130.5000 325° Northwest 410 472 36,000  Level Vancouver Center
06:20PM 54.9333 -130.5833 334° Northwest 410 472 36,000 -540 Level Anchorage Center
06:21PM 55.0333 -130.7000 326° Northwest 410 472 34,900 -1,020 Descending Anchorage Center
06:22PM 55.1167 -130.8167 321° Northwest 410 472 34,000 -960 Descending Anchorage Center
06:23PM 55.2167 -130.9333 326° Northwest 410 472 33,000 -1,020 Descending Anchorage Center
06:24PM 55.3000 -131.0667 318° Northwest 420 483 32,000 -1,020 Descending Anchorage Center
06:25PM 55.4000 -131.1833 326° Northwest 420 483 31,000 -1,020 Descending Anchorage Center
06:26PM 55.5000 -131.3167 323° Northwest 430 495 30,000 -960 Descending Anchorage Center
06:27PM 55.5833 -131.4500 318° Northwest 430 495 29,100 -1,020 Descending Anchorage Center
06:28PM 55.6833 -131.5833 323° Northwest 440 506 28,000 -600 Descending Anchorage Center
06:29PM 55.7833 -131.7167 323° Northwest 440 506 28,000  Level Anchorage Center
06:30PM 55.8667 -131.8333 322° Northwest 440 506 28,000  Level Anchorage Center
06:31PM 56.0667 -132.1000 323° Northwest 430 495 28,000  Level Vancouver Center
06:33PM 56.1833 -132.2500 324° Northwest 420 483 28,000  Level Anchorage Center
06:34PM 56.2667 -132.3833 318° Northwest 430 495 28,000 -60 Level Anchorage Center
06:35PM 56.3667 -132.5167 324° Northwest 430 495 27,900 -600 Descending Anchorage Center
06:36PM 56.4667 -132.6500 324° Northwest 430 495 26,900 -960 Descending Anchorage Center
06:37PM 56.5500 -132.7833 319° Northwest 440 506 26,000 -480 Descending Anchorage Center
06:38PM 56.6500 -132.9167 324° Northwest 430 495 26,000  Level Anchorage Center
06:39PM 56.7500 -133.0500 324° Northwest 420 483 26,000  Level Anchorage Center
06:40PM 56.8333 -133.2000 315° West 430 495 26,000  Level Anchorage Center
06:41PM 56.9167 -133.3333 319° Northwest 420 483 26,000  Level Anchorage Center
06:42PM 57.0167 -133.4667 324° Northwest 420 483 26,000  Level Anchorage Center
06:43PM 57.1000 -133.6000 319° Northwest 420 483 26,000  Level Anchorage Center
06:44PM 57.2000 -133.7333 324° Northwest 420 483 26,000  Level Anchorage Center
06:45PM 57.2833 -133.8667 319° Northwest 420 483 26,000  Level Anchorage Center
06:46PM 57.3667 -134.0000 319° Northwest 420 483 26,000  Level Anchorage Center
06:47PM 57.4667 -134.1333 324° Northwest 420 483 26,000  Level Anchorage Center
06:48PM 57.5500 -134.2667 319° Northwest 410 472 26,100 1,440 Climbing Anchorage Center
06:49PM 57.6333 -134.4000 319° Northwest 410 472 28,900 2,400 Climbing Anchorage Center
06:50PM 57.7167 -134.5333 320° Northwest 390 449 31,000 1,740 Climbing Anchorage Center
06:51PM 57.8000 -134.6667 320° Northwest 400 460 32,500 1,200 Climbing Anchorage Center
06:52PM 57.9000 -134.8167 321° Northwest 410 472 33,500 1,020 Climbing Anchorage Center
06:53PM 57.9833 -134.9500 320° Northwest 420 483 34,600 1,140 Climbing Anchorage Center
06:54PM 58.0667 -135.0833 320° Northwest 400 460 35,900 1,260 Climbing Anchorage Center
06:55PM 58.1500 -135.2167 320° Northwest 390 449 37,200 1,020 Climbing Anchorage Center
06:56PM 58.2667 -135.3500 329° Northwest 400 460 38,000 360 Climbing Anchorage Center
06:57PM 58.3667 -135.4500 332° Northwest 410 472 38,000  Level Anchorage Center
06:58PM 58.4667 -135.5667 329° Northwest 420 483 38,000  Level Anchorage Center
06:59PM 58.5667 -135.6667 332° Northwest 420 483 38,000  Level Anchorage Center
07:00PM 58.6667 -135.7833 329° Northwest 420 483 38,000  Level Anchorage Center
07:02PM 58.8833 -136.0167 331° Northwest 420 483 38,000  Level Anchorage Center
07:03PM 58.9667 -136.1000 333° Northwest 420 483 38,000  Level Anchorage Center
07:04PM 59.0667 -136.2167 329° Northwest 420 483 38,000  Level Anchorage Center
07:05PM 59.1667 -136.3333 329° Northwest 420 483 38,000  Level Anchorage Center
07:06PM 59.2667 -136.4500 329° Northwest 420 483 38,000  Level Anchorage Center
07:07PM 59.3667 -136.5667 329° Northwest 420 483 38,000  Level Anchorage Center
07:08PM 59.4667 -136.6833 329° Northwest 420 483 38,000  Level Anchorage Center
07:09PM 59.5667 -136.8000 329° Northwest 420 483 38,000  Level Anchorage Center
07:10PM 59.6833 -136.9167 333° Northwest 430 495 38,000  Level Anchorage Center
07:11PM 59.7833 -137.0333 330° Northwest 430 495 38,000  Level Anchorage Center
07:12PM 59.8833 -137.1667 326° Northwest 420 483 38,000  Level Anchorage Center
07:13PM 59.9833 -137.2833 330° Northwest 430 495 38,000  Level Anchorage Center
07:14PM 60.0833 -137.4000 330° Northwest 420 483 38,000  Level Anchorage Center
07:15PM 60.1833 -137.5167 330° Northwest 420 483 38,000  Level Anchorage Center
07:16PM 60.2833 -137.6500 327° Northwest 420 483 38,000  Level Anchorage Center
07:17PM 60.3833 -137.7667 330° Northwest 410 472 38,000  Level Anchorage Center
07:18PM 60.5000 -137.9167 328° Northwest 410 472 38,000  Level Anchorage Center
07:19PM 60.6000 -138.0333 330° Northwest 410 472 38,000  Level Anchorage Center
07:20PM 60.7000 -138.1500 330° Northwest 410 472 38,000  Level Anchorage Center
07:21PM 60.7833 -138.2833 322° Northwest 420 483 38,000  Level Anchorage Center
07:22PM 60.8833 -138.4000 330° Northwest 420 483 38,000  Level Anchorage Center
07:23PM 61.0000 -138.5333 331° Northwest 430 495 38,000  Level Anchorage Center
07:24PM 61.1000 -138.6667 327° Northwest 430 495 38,000  Level Anchorage Center
07:25PM 61.1833 -138.7833 326° Northwest 420 483 38,000  Level Anchorage Center
07:26PM 61.2833 -138.9167 327° Northwest 410 472 38,000  Level Anchorage Center
07:27PM 61.3833 -139.0500 327° Northwest 400 460 38,000  Level Anchorage Center
07:28PM 61.4667 -139.2000 319° Northwest 410 472 38,000  Level Anchorage Center
07:29PM 61.5500 -139.3500 319° Northwest 410 472 38,000  Level Anchorage Center
07:30PM 61.6167 -139.4833 316° Northwest 410 472 38,000  Level Anchorage Center
07:51PM 63.3500 -143.1333 306° West 460 529 38,000  Level Anchorage Center
07:52PM 63.2873 -142.9308 306° West  Level FlightAware Approximate
07:52PM 63.4167 -143.3333 307° West 410 472 38,000  Level Anchorage Center
07:53PM 63.3514 -143.1266 306° West  Level FlightAware Approximate
07:53PM 63.4833 -143.5000 312° West 420 483 38,000  Level Anchorage Center
07:54PM 63.4151 -143.3232 306° West  Level FlightAware Approximate
07:54PM 63.5667 -143.7667 305° West 430 495 38,000  Level Anchorage Center
07:55PM 63.4787 -143.5207 306° West  Level FlightAware Approximate
07:55PM 63.6333 -143.9833 305° West 430 495 38,000  Level Anchorage Center
07:56PM 63.5419 -143.7191 306° West  Level FlightAware Approximate
07:56PM 63.7000 -144.2000 305° West 420 483 38,000  Level Anchorage Center
07:57PM 63.7667 -144.4000 307° West 420 483 38,000  Level Anchorage Center
07:58PM 63.8333 -144.6333 303° West 430 495 38,000 -120 Level Anchorage Center
07:59PM 63.8833 -144.8167 302° West 430 495 37,800 -660 Descending Anchorage Center
08:00PM 63.9667 -145.0833 306° West 410 472 36,700 -1,200 Descending Anchorage Center
08:01PM 64.0333 -145.3000 305° West 420 483 35,400 -2,460 Descending Anchorage Center
08:02PM 64.1000 -145.5333 303° West 420 483 31,800 -3,540 Descending Anchorage Center
08:03PM 64.1667 -145.7500 305° West 430 495 28,300 -3,120 Descending Anchorage Center
08:04PM 64.2333 -145.9833 303° West 420 483 25,600 -2,700 Descending Anchorage Center
08:05PM 64.3000 -146.1833 308° West 400 460 23,000 -2,640 Descending Anchorage Center
08:07PM 64.3723 -146.4583 303° West  Level FlightAware Approximate
08:14PM 64.5922 -147.9622 12° North  Level FlightAware Approximate
08:15PM 64.6977 -147.9043 10° North  Level FlightAware Approximate
08:16PM 64.8000 -147.8500 16° North  Level FlightAware Approximate
08:17PM 64.8151 -147.8564 16° North  Level Estimated
08:18PM 64.8151 -147.8564 16° North  Level Estimated
08:19PM 64.8151 -147.8564 16° North  Level Estimated
08:20PM 64.8151 -147.8564 16° North  Level Estimated
08:21PM 64.8151 -147.8564 16° North  Level Estimated
08:22PM 64.8151 -147.8564 16° North  Level Estimated
08:23PM 64.8151 -147.8564 16° North  Level Estimated
08:24PM 64.8151 -147.8564 16° North  Level Estimated